Grizzly Air Cargo 5372


PACD
Cold Bay Airport
Cold Bay, Alaska, US
PADU
Unalaska Airport
Unalaska, Alaska, US

Activity Log

Date Flight Route Aircraft Duration
No Flights Yet

Route Details

Aircraft Information
Primary: Saab 340AF
Backup: Not Available
Route Data
Distance: 169nm
Sched. Duration: 0h 70m
Avg. Duration: 0h 00m (-70m)
Times Flown: 0
Recm'd Route: CDB J115 DUT
Planned Altitude: 18,000ft
Origin Wx: PACD 270953Z AUTO 11003KT 10SM OVC006 M01/M02 A2964 RMK AO2 SLP037 T10061022 TSNO
Dest. Wx: PADU 270956Z AUTO 20003KT 10SM BKN040 02/M02 A2959 RMK AO2 SLP024 T00171017 FZRANO
Notes:

Financial History
Total Freight: 0lbs
Average Load: 0lbs/flt
Fuel Used: 0lbs
Avg. Fuel Used: 0lbs/flt
Fuel Expense: $0
Avg. Fuel Expense: $0
Avg. Fuel Cost: $0/lbs
Total Gross Income: $0
Pilot Pay: $0
Total Expenses: $0
Total Revenue: $0
Average Revenue: $0